sensor_id;sensor_type;location;lat;lon;timestamp;pressure;altitude;pressure_sealevel;temperature;humidity
27980;BME280;15315;50.836;4.430;2023-04-10T00:05:23;101490.03;;;15.76;57.60
27980;BME280;15315;50.836;4.430;2023-04-10T00:15:24;101490.50;;;15.48;58.63
27980;BME280;15315;50.836;4.430;2023-04-10T00:25:24;101495.19;;;15.46;57.19
27980;BME280;15315;50.836;4.430;2023-04-10T00:35:25;101479.19;;;14.96;57.72
27980;BME280;15315;50.836;4.430;2023-04-10T00:45:26;101481.72;;;14.86;57.43
27980;BME280;15315;50.836;4.430;2023-04-10T00:55:27;101470.06;;;14.73;57.06
27980;BME280;15315;50.836;4.430;2023-04-10T01:05:32;101452.81;;;14.50;56.98
27980;BME280;15315;50.836;4.430;2023-04-10T01:16:26;101440.34;;;14.71;56.33
27980;BME280;15315;50.836;4.430;2023-04-10T01:26:12;101429.72;;;14.68;55.78
27980;BME280;15315;50.836;4.430;2023-04-10T01:36:20;101429.13;;;14.76;55.16
27980;BME280;15315;50.836;4.430;2023-04-10T01:46:22;101402.91;;;14.88;54.79
27980;BME280;15315;50.836;4.430;2023-04-10T01:56:24;101390.06;;;14.90;54.15
27980;BME280;15315;50.836;4.430;2023-04-10T02:16:44;101369.03;;;14.69;53.78
27980;BME280;15315;50.836;4.430;2023-04-10T02:26:51;101368.63;;;14.39;54.02
27980;BME280;15315;50.836;4.430;2023-04-10T02:36:52;101366.78;;;14.16;54.33
27980;BME280;15315;50.836;4.430;2023-04-10T02:46:53;101362.84;;;14.20;54.09
27980;BME280;15315;50.836;4.430;2023-04-10T02:56:53;101350.38;;;14.41;53.57
27980;BME280;15315;50.836;4.430;2023-04-10T03:06:53;101359.03;;;14.46;53.06
27980;BME280;15315;50.836;4.430;2023-04-10T03:16:54;101350.47;;;14.40;52.98
27980;BME280;15315;50.836;4.430;2023-04-10T03:26:55;101347.78;;;14.40;52.86
27980;BME280;15315;50.836;4.430;2023-04-10T03:36:56;101326.94;;;14.40;52.56
27980;BME280;15315;50.836;4.430;2023-04-10T03:46:56;101309.94;;;14.14;53.12
27980;BME280;15315;50.836;4.430;2023-04-10T03:56:56;101304.28;;;14.17;53.00
27980;BME280;15315;50.836;4.430;2023-04-10T04:06:57;101293.50;;;14.05;52.86
27980;BME280;15315;50.836;4.430;2023-04-10T04:16:57;101275.13;;;13.97;52.94
27980;BME280;15315;50.836;4.430;2023-04-10T04:26:58;101267.63;;;14.01;52.82
27980;BME280;15315;50.836;4.430;2023-04-10T04:36:58;101276.78;;;14.11;52.60
27980;BME280;15315;50.836;4.430;2023-04-10T04:46:59;101271.47;;;14.09;52.50
27980;BME280;15315;50.836;4.430;2023-04-10T04:56:59;101263.00;;;13.90;53.05
27980;BME280;15315;50.836;4.430;2023-04-10T05:07:00;101260.00;;;13.82;52.83
27980;BME280;15315;50.836;4.430;2023-04-10T05:17:01;101237.13;;;14.21;52.31
27980;BME280;15315;50.836;4.430;2023-04-10T05:27:01;101241.91;;;13.83;52.76
27980;BME280;15315;50.836;4.430;2023-04-10T05:37:02;101260.91;;;14.17;52.24
27980;BME280;15315;50.836;4.430;2023-04-10T05:47:02;101263.38;;;14.20;52.05
27980;BME280;15315;50.836;4.430;2023-04-10T05:57:03;101261.22;;;14.37;51.68
27980;BME280;15315;50.836;4.430;2023-04-10T06:07:03;101266.94;;;14.45;51.59
27980;BME280;15315;50.836;4.430;2023-04-10T06:17:03;101236.03;;;14.47;51.77
27980;BME280;15315;50.836;4.430;2023-04-10T06:27:04;101238.63;;;14.60;51.34
27980;BME280;15315;50.836;4.430;2023-04-10T06:37:04;101219.53;;;14.27;51.72
27980;BME280;15315;50.836;4.430;2023-04-10T06:47:05;101212.38;;;14.26;51.94
27980;BME280;15315;50.836;4.430;2023-04-10T06:57:08;101203.47;;;14.92;50.70
27980;BME280;15315;50.836;4.430;2023-04-10T07:07:08;101187.72;;;14.40;51.49
27980;BME280;15315;50.836;4.430;2023-04-10T07:17:11;101152.03;;;14.79;51.25
27980;BME280;15315;50.836;4.430;2023-04-10T07:27:11;101148.16;;;15.04;51.34
27980;BME280;15315;50.836;4.430;2023-04-10T07:37:12;101122.00;;;15.57;50.63
27980;BME280;15315;50.836;4.430;2023-04-10T07:47:13;101105.69;;;15.57;50.13
27980;BME280;15315;50.836;4.430;2023-04-10T07:57:13;101104.63;;;15.48;50.96
27980;BME280;15315;50.836;4.430;2023-04-10T08:07:13;101111.25;;;16.28;50.12
27980;BME280;15315;50.836;4.430;2023-04-10T08:17:14;101093.56;;;16.23;50.06
27980;BME280;15315;50.836;4.430;2023-04-10T08:27:14;101090.91;;;16.32;50.04
27980;BME280;15315;50.836;4.430;2023-04-10T08:37:15;101083.56;;;16.23;50.09
27980;BME280;15315;50.836;4.430;2023-04-10T08:47:19;101078.03;;;17.52;49.09
27980;BME280;15315;50.836;4.430;2023-04-10T08:57:20;101052.59;;;16.45;50.45
27980;BME280;15315;50.836;4.430;2023-04-10T09:07:21;101055.81;;;16.69;51.00
27980;BME280;15315;50.836;4.430;2023-04-10T09:17:25;101036.25;;;17.04;50.41
27980;BME280;15315;50.836;4.430;2023-04-10T09:27:33;101036.59;;;17.29;49.90
27980;BME280;15315;50.836;4.430;2023-04-10T09:37:35;101027.09;;;18.65;48.70
27980;BME280;15315;50.836;4.430;2023-04-10T09:47:35;101023.28;;;18.48;48.96
27980;BME280;15315;50.836;4.430;2023-04-10T09:57:36;101007.94;;;18.37;49.39
27980;BME280;15315;50.836;4.430;2023-04-10T10:07:37;100978.63;;;18.12;49.92
27980;BME280;15315;50.836;4.430;2023-04-10T10:17:45;100963.88;;;18.77;48.94
27980;BME280;15315;50.836;4.430;2023-04-10T10:27:52;100959.28;;;19.13;48.20
27980;BME280;15315;50.836;4.430;2023-04-10T10:37:54;100931.97;;;19.82;48.26
27980;BME280;15315;50.836;4.430;2023-04-10T10:47:55;100934.50;;;20.35;47.58
27980;BME280;15315;50.836;4.430;2023-04-10T10:58:00;100909.66;;;20.28;47.11
27980;BME280;15315;50.836;4.430;2023-04-10T11:18:01;100873.13;;;19.44;48.82
27980;BME280;15315;50.836;4.430;2023-04-10T11:28:01;100863.44;;;20.33;46.97
27980;BME280;15315;50.836;4.430;2023-04-10T11:38:09;100851.31;;;19.94;47.21
27980;BME280;15315;50.836;4.430;2023-04-10T11:48:10;100823.91;;;19.78;47.06
27980;BME280;15315;50.836;4.430;2023-04-10T11:58:25;100821.56;;;19.32;48.20
27980;BME280;15315;50.836;4.430;2023-04-10T12:08:33;100792.75;;;20.21;47.48
27980;BME280;15315;50.836;4.430;2023-04-10T12:18:34;100783.97;;;19.59;48.30
27980;BME280;15315;50.836;4.430;2023-04-10T12:28:36;100770.78;;;19.97;47.55
27980;BME280;15315;50.836;4.430;2023-04-10T12:38:41;100771.34;;;20.32;46.25
27980;BME280;15315;50.836;4.430;2023-04-10T12:48:42;100759.91;;;20.21;46.74
27980;BME280;15315;50.836;4.430;2023-04-10T12:58:42;100726.69;;;20.56;49.99
27980;BME280;15315;50.836;4.430;2023-04-10T13:08:43;100724.91;;;19.91;52.59
27980;BME280;15315;50.836;4.430;2023-04-10T13:18:43;100693.16;;;20.54;52.94
27980;BME280;15315;50.836;4.430;2023-04-10T13:28:44;100683.03;;;20.79;54.08
27980;BME280;15315;50.836;4.430;2023-04-10T13:38:44;100659.41;;;20.86;54.42
27980;BME280;15315;50.836;4.430;2023-04-10T13:48:45;100640.03;;;20.87;53.76
27980;BME280;15315;50.836;4.430;2023-04-10T13:58:45;100621.41;;;20.59;53.74
27980;BME280;15315;50.836;4.430;2023-04-10T14:08:45;100609.66;;;20.34;51.13
27980;BME280;15315;50.836;4.430;2023-04-10T14:18:46;100596.47;;;21.00;50.46
27980;BME280;15315;50.836;4.430;2023-04-10T14:28:46;100596.94;;;21.04;49.75
27980;BME280;15315;50.836;4.430;2023-04-10T14:38:47;100613.25;;;20.18;52.56
27980;BME280;15315;50.836;4.430;2023-04-10T14:48:47;100623.81;;;19.15;59.31
27980;BME280;15315;50.836;4.430;2023-04-10T14:58:47;100653.19;;;18.53;61.28
27980;BME280;15315;50.836;4.430;2023-04-10T15:08:48;100643.94;;;18.72;64.17
27980;BME280;15315;50.836;4.430;2023-04-10T15:18:48;100635.19;;;18.94;65.04
27980;BME280;15315;50.836;4.430;2023-04-10T15:28:49;100638.09;;;18.41;69.24
27980;BME280;15315;50.836;4.430;2023-04-10T15:38:49;100625.63;;;17.96;75.70
27980;BME280;15315;50.836;4.430;2023-04-10T15:48:50;100610.97;;;17.97;87.22
27980;BME280;15315;50.836;4.430;2023-04-10T15:58:50;100601.59;;;17.28;100.00
27980;BME280;15315;50.836;4.430;2023-04-10T16:08:51;100609.75;;;17.28;100.00
27980;BME280;15315;50.836;4.430;2023-04-10T16:18:51;100616.22;;;16.27;100.00
27980;BME280;15315;50.836;4.430;2023-04-10T16:28:53;100650.72;;;15.88;100.00
27980;BME280;15315;50.836;4.430;2023-04-10T16:38:53;100654.44;;;15.49;100.00
27980;BME280;15315;50.836;4.430;2023-04-10T16:48:54;100670.16;;;15.45;100.00
27980;BME280;15315;50.836;4.430;2023-04-10T16:58:55;100669.03;;;15.76;100.00
27980;BME280;15315;50.836;4.430;2023-04-10T17:08:56;100644.34;;;15.20;100.00
27980;BME280;15315;50.836;4.430;2023-04-10T17:18:56;100616.09;;;15.42;100.00
27980;BME280;15315;50.836;4.430;2023-04-10T17:28:57;100585.78;;;15.75;100.00
27980;BME280;15315;50.836;4.430;2023-04-10T17:38:57;100593.88;;;15.18;100.00
27980;BME280;15315;50.836;4.430;2023-04-10T17:48:58;100549.56;;;15.17;100.00
27980;BME280;15315;50.836;4.430;2023-04-10T17:59:00;100540.69;;;15.34;100.00
27980;BME280;15315;50.836;4.430;2023-04-10T18:09:00;100502.56;;;15.36;100.00
27980;BME280;15315;50.836;4.430;2023-04-10T18:19:01;100524.41;;;15.25;100.00
27980;BME280;15315;50.836;4.430;2023-04-10T18:29:01;100515.25;;;14.88;100.00
27980;BME280;15315;50.836;4.430;2023-04-10T18:39:02;100552.28;;;15.17;100.00
27980;BME280;15315;50.836;4.430;2023-04-10T18:49:04;100523.81;;;15.12;100.00
27980;BME280;15315;50.836;4.430;2023-04-10T18:59:04;100512.81;;;15.90;100.00
27980;BME280;15315;50.836;4.430;2023-04-10T19:09:04;100538.91;;;15.54;100.00
27980;BME280;15315;50.836;4.430;2023-04-10T19:19:05;100554.84;;;16.05;100.00
27980;BME280;15315;50.836;4.430;2023-04-10T19:29:05;100550.75;;;15.72;100.00
27980;BME280;15315;50.836;4.430;2023-04-10T19:39:08;100548.53;;;15.09;100.00
27980;BME280;15315;50.836;4.430;2023-04-10T19:49:08;100555.31;;;15.33;100.00
27980;BME280;15315;50.836;4.430;2023-04-10T19:59:08;100567.69;;;14.98;100.00
27980;BME280;15315;50.836;4.430;2023-04-10T20:09:09;100555.41;;;14.23;100.00
27980;BME280;15315;50.836;4.430;2023-04-10T20:19:10;100543.78;;;14.72;100.00
27980;BME280;15315;50.836;4.430;2023-04-10T20:29:10;100540.69;;;14.47;100.00
27980;BME280;15315;50.836;4.430;2023-04-10T20:39:11;100517.47;;;14.03;100.00
27980;BME280;15315;50.836;4.430;2023-04-10T20:49:11;100528.78;;;13.87;100.00
27980;BME280;15315;50.836;4.430;2023-04-10T20:59:14;100516.53;;;14.13;100.00
27980;BME280;15315;50.836;4.430;2023-04-10T21:09:15;100511.59;;;13.98;100.00
27980;BME280;15315;50.836;4.430;2023-04-10T21:19:15;100501.38;;;14.41;100.00
27980;BME280;15315;50.836;4.430;2023-04-10T21:29:16;100526.34;;;14.75;100.00
27980;BME280;15315;50.836;4.430;2023-04-10T21:39:16;100534.19;;;14.38;100.00
27980;BME280;15315;50.836;4.430;2023-04-10T21:49:16;100549.78;;;14.46;100.00
27980;BME280;15315;50.836;4.430;2023-04-10T21:59:17;100566.47;;;13.90;100.00
27980;BME280;15315;50.836;4.430;2023-04-10T22:09:17;100550.53;;;14.27;100.00
27980;BME280;15315;50.836;4.430;2023-04-10T22:19:17;100536.66;;;13.70;100.00
27980;BME280;15315;50.836;4.430;2023-04-10T22:29:18;100545.09;;;13.24;100.00
27980;BME280;15315;50.836;4.430;2023-04-10T22:39:18;100540.97;;;13.72;100.00
27980;BME280;15315;50.836;4.430;2023-04-10T22:49:18;100544.34;;;13.85;100.00
27980;BME280;15315;50.836;4.430;2023-04-10T22:59:19;100554.38;;;13.42;100.00
27980;BME280;15315;50.836;4.430;2023-04-10T23:09:19;100569.53;;;13.44;100.00
27980;BME280;15315;50.836;4.430;2023-04-10T23:19:20;100567.47;;;13.37;100.00
27980;BME280;15315;50.836;4.430;2023-04-10T23:29:20;100565.22;;;13.42;100.00
27980;BME280;15315;50.836;4.430;2023-04-10T23:39:21;100581.97;;;13.04;100.00
27980;BME280;15315;50.836;4.430;2023-04-10T23:49:21;100583.38;;;13.62;100.00
27980;BME280;15315;50.836;4.430;2023-04-10T23:59:21;100592.66;;;14.01;100.00
